Time;durP1;ratioP1;P1;durP2;ratioP2;P2;SDS_P1;SDS_P2;PMS_P1;PMS_P2;Temp;Humidity;BMP_temperature;BMP_pressure;BME280_temperature;BME280_humidity;BME280_pressure;Samples;Min_cycle;Max_cycle;Signal;HPM_P1;HPM_P2
2021/11/13 00:00:34;;;;;;;45.75;32.08;;;8.20;99.90;;;;;;5092425;28;20227;-66
2021/11/13 00:03:01;;;;;;;48.40;31.70;;;8.20;99.90;;;;;;5079445;28;20304;-64
2021/11/13 00:05:28;;;;;;;45.10;30.77;;;8.10;99.90;;;;;;5092761;28;20253;-64
2021/11/13 00:07:55;;;;;;;48.50;32.22;;;8.00;99.90;;;;;;5086123;28;20249;-64
2021/11/13 00:10:27;;;;;;;44.38;31.40;;;8.10;99.90;;;;;;5086355;28;20227;-64
2021/11/13 00:12:54;;;;;;;52.90;34.40;;;7.90;99.90;;;;;;5092431;28;20546;-64
2021/11/13 00:15:21;;;;;;;53.78;35.55;;;7.80;99.90;;;;;;5092573;28;20611;-64
2021/11/13 00:17:49;;;;;;;48.55;32.65;;;7.70;99.90;;;;;;5083321;28;20220;-64
2021/11/13 00:20:16;;;;;;;54.20;33.88;;;7.70;99.90;;;;;;5091970;28;20227;-64
2021/11/13 00:22:44;;;;;;;45.75;30.75;;;7.70;99.90;;;;;;5092383;28;20272;-63
2021/11/13 00:25:11;;;;;;;47.97;31.83;;;7.80;99.90;;;;;;5092644;28;20284;-64
2021/11/13 00:27:40;;;;;;;53.22;33.70;;;7.80;99.90;;;;;;5092375;28;20312;-64
2021/11/13 00:30:08;;;;;;;45.22;32.60;;;7.80;99.90;;;;;;5092549;28;20238;-64
2021/11/13 00:32:35;;;;;;;49.22;33.30;;;7.80;99.90;;;;;;5092675;28;20230;-64
2021/11/13 00:35:03;;;;;;;54.67;35.03;;;7.70;99.90;;;;;;5092211;28;20673;-65
2021/11/13 00:37:30;;;;;;;51.10;33.45;;;7.70;99.90;;;;;;5092604;28;20223;-64
2021/11/13 00:39:57;;;;;;;48.60;31.95;;;7.60;99.90;;;;;;5091952;28;20231;-64
2021/11/13 00:42:24;;;;;;;48.95;31.67;;;7.60;99.90;;;;;;5091280;28;20657;-64
2021/11/13 00:44:53;;;;;;;48.90;34.03;;;7.70;99.90;;;;;;5091586;28;20669;-62
2021/11/13 00:47:20;;;;;;;45.17;30.30;;;7.60;99.90;;;;;;5092412;28;20235;-62
2021/11/13 00:49:47;;;;;;;45.90;30.30;;;7.50;99.90;;;;;;5091874;28;20235;-63
2021/11/13 00:52:15;;;;;;;46.55;29.95;;;7.50;99.90;;;;;;5092574;28;20560;-64
2021/11/13 00:54:42;;;;;;;49.55;32.28;;;7.50;99.90;;;;;;5091911;28;20231;-63
2021/11/13 00:57:11;;;;;;;48.45;30.67;;;7.50;99.90;;;;;;5092611;28;20219;-63
2021/11/13 00:59:38;;;;;;;48.30;30.50;;;7.50;99.90;;;;;;5092060;28;20237;-63
2021/11/13 01:02:08;;;;;;;44.38;29.00;;;7.40;99.90;;;;;;5085753;28;20219;-63
2021/11/13 01:04:36;;;;;;;54.58;33.55;;;7.40;99.90;;;;;;5092517;28;20223;-63
2021/11/13 01:07:03;;;;;;;51.35;32.25;;;7.50;99.90;;;;;;5091767;28;20553;-63
2021/11/13 01:09:30;;;;;;;45.80;30.42;;;7.50;99.90;;;;;;5091659;28;20284;-63
2021/11/13 01:11:58;;;;;;;46.88;29.73;;;7.50;99.90;;;;;;5091983;28;20223;-63
2021/11/13 01:14:26;;;;;;;45.08;29.42;;;7.50;99.90;;;;;;5091999;28;20232;-63
2021/11/13 01:16:54;;;;;;;44.03;29.73;;;7.60;99.90;;;;;;5086371;28;20304;-63
2021/11/13 01:19:23;;;;;;;53.05;34.00;;;7.60;99.90;;;;;;5092169;28;20633;-63
2021/11/13 01:21:50;;;;;;;44.28;30.83;;;7.60;99.90;;;;;;5091808;28;20281;-63
2021/11/13 01:24:17;;;;;;;49.88;30.45;;;7.60;99.90;;;;;;5090885;28;20245;-63
2021/11/13 01:26:46;;;;;;;48.60;31.38;;;7.70;99.90;;;;;;5091665;28;20228;-63
2021/11/13 01:29:13;;;;;;;44.80;30.38;;;7.70;99.90;;;;;;5092019;28;20734;-64
2021/11/13 01:31:40;;;;;;;44.42;29.05;;;7.70;99.90;;;;;;5094540;28;20260;-65
2021/11/13 01:34:07;;;;;;;43.55;29.55;;;7.70;99.90;;;;;;5095178;28;20292;-63
2021/11/13 01:36:35;;;;;;;46.45;30.63;;;7.70;99.90;;;;;;5095852;28;20696;-63
2021/11/13 01:39:02;;;;;;;41.88;29.95;;;7.70;99.90;;;;;;5095159;28;20227;-63
2021/11/13 01:41:30;;;;;;;43.85;30.08;;;7.70;99.90;;;;;;5095727;28;20238;-64
2021/11/13 01:43:57;;;;;;;46.20;31.67;;;7.80;99.90;;;;;;5095219;28;20231;-63
2021/11/13 01:46:24;;;;;;;41.83;29.52;;;7.80;99.90;;;;;;5095425;28;20227;-63
2021/11/13 01:48:51;;;;;;;42.97;29.10;;;7.80;99.90;;;;;;5095155;28;20223;-63
2021/11/13 01:51:21;;;;;;;42.85;30.05;;;7.90;99.90;;;;;;5095608;28;20304;-63
2021/11/13 01:53:50;;;;;;;46.85;27.95;;;7.90;99.90;;;;;;5095113;28;20216;-63
2021/11/13 01:56:21;;;;;;;49.42;32.88;;;7.90;99.90;;;;;;5092174;28;20220;-64
2021/11/13 01:58:49;;;;;;;46.35;31.40;;;8.00;99.90;;;;;;5086241;28;20284;-63
2021/11/13 02:01:16;;;;;;;46.67;29.15;;;8.00;99.90;;;;;;5088584;28;20239;-64
2021/11/13 02:03:46;;;;;;;40.83;28.52;;;8.00;99.90;;;;;;5091352;28;20268;-63
2021/11/13 02:06:14;;;;;;;44.65;30.35;;;8.00;99.90;;;;;;5095201;28;20219;-63
2021/11/13 02:08:44;;;;;;;37.70;27.17;;;8.10;99.90;;;;;;5094893;28;20249;-63
2021/11/13 02:11:14;;;;;;;41.65;28.88;;;8.10;99.90;;;;;;5094967;28;20290;-63
2021/11/13 02:13:42;;;;;;;42.58;30.70;;;8.10;99.90;;;;;;5094962;28;20219;-64
2021/11/13 02:16:09;;;;;;;53.40;31.40;;;8.10;99.90;;;;;;5094325;28;20272;-63
2021/11/13 02:18:36;;;;;;;44.63;29.63;;;8.10;99.90;;;;;;5094929;28;20292;-64
2021/11/13 02:21:05;;;;;;;47.67;31.13;;;8.20;99.90;;;;;;5094319;28;20231;-63
2021/11/13 02:23:32;;;;;;;47.83;31.98;;;8.10;99.90;;;;;;5088106;28;20290;-63
2021/11/13 02:25:59;;;;;;;44.25;29.77;;;8.10;99.90;;;;;;5088592;28;20685;-64
2021/11/13 02:28:27;;;;;;;43.55;30.73;;;8.20;99.90;;;;;;5094588;28;20316;-63
2021/11/13 02:30:57;;;;;;;46.85;31.00;;;8.20;99.90;;;;;;5089552;28;20289;-64
2021/11/13 02:33:25;;;;;;;42.30;28.70;;;8.20;99.90;;;;;;5094985;28;20743;-63
2021/11/13 02:35:54;;;;;;;45.63;30.63;;;8.20;99.90;;;;;;5094334;28;20284;-63
2021/11/13 02:38:25;;;;;;;44.05;28.40;;;8.10;99.90;;;;;;5094692;28;20306;-63
2021/11/13 02:40:55;;;;;;;44.92;30.33;;;8.10;99.90;;;;;;5093678;28;20224;-63
2021/11/13 02:43:24;;;;;;;42.90;29.98;;;8.10;99.90;;;;;;5090380;28;20216;-63
2021/11/13 02:45:53;;;;;;;51.00;32.08;;;8.00;99.90;;;;;;5092019;28;20701;-63
2021/11/13 02:48:22;;;;;;;39.50;27.95;;;7.90;99.90;;;;;;5094230;28;20219;-64
2021/11/13 02:50:49;;;;;;;46.83;31.15;;;7.90;99.90;;;;;;5094404;28;20231;-63
2021/11/13 02:53:18;;;;;;;43.85;28.42;;;7.80;99.90;;;;;;5093556;28;20231;-63
2021/11/13 02:55:47;;;;;;;42.63;27.65;;;7.80;99.90;;;;;;5094597;28;20219;-63
2021/11/13 02:58:14;;;;;;;44.28;29.83;;;7.90;99.90;;;;;;5093951;28;20231;-63
2021/11/13 03:00:43;;;;;;;44.50;29.58;;;7.80;99.90;;;;;;5092718;28;20223;-64
2021/11/13 03:03:15;;;;;;;42.45;28.20;;;7.80;99.90;;;;;;5086196;28;20276;-63
2021/11/13 03:05:47;;;;;;;51.15;30.05;;;7.70;99.90;;;;;;5094229;28;20253;-63
2021/11/13 03:08:14;;;;;;;45.75;31.90;;;7.70;99.90;;;;;;5084708;28;20224;-63
2021/11/13 03:10:41;;;;;;;42.58;28.33;;;7.80;99.90;;;;;;5093956;28;20261;-63
2021/11/13 03:13:09;;;;;;;47.05;30.35;;;7.90;99.90;;;;;;5093741;28;20254;-63
2021/11/13 03:15:36;;;;;;;52.92;35.30;;;7.80;99.90;;;;;;5094149;28;20280;-63
2021/11/13 03:18:03;;;;;;;54.67;37.53;;;7.80;99.90;;;;;;5093293;28;20231;-64
2021/11/13 03:20:31;;;;;;;66.93;42.58;;;7.80;99.90;;;;;;5093836;28;20224;-63
2021/11/13 03:23:00;;;;;;;71.63;44.42;;;7.80;99.90;;;;;;5093028;28;20227;-63
2021/11/13 03:25:32;;;;;;;59.08;39.17;;;7.70;99.90;;;;;;5093825;28;20227;-63
2021/11/13 03:28:04;;;;;;;58.30;36.75;;;7.60;99.90;;;;;;5093516;28;20295;-63
2021/11/13 03:30:33;;;;;;;53.72;33.95;;;7.70;99.90;;;;;;5093220;28;20552;-63
2021/11/13 03:33:00;;;;;;;46.20;31.17;;;7.60;99.90;;;;;;5093324;28;20304;-63
2021/11/13 03:35:30;;;;;;;40.35;28.48;;;7.60;99.90;;;;;;5093703;28;20231;-63
2021/11/13 03:37:59;;;;;;;46.67;30.60;;;7.60;99.90;;;;;;5093175;28;20211;-63
2021/11/13 03:40:26;;;;;;;42.05;29.25;;;7.60;99.90;;;;;;5092973;28;20219;-63
2021/11/13 03:42:53;;;;;;;44.28;30.88;;;7.70;99.90;;;;;;5092309;28;20295;-63
2021/11/13 03:45:21;;;;;;;38.65;26.77;;;7.60;99.90;;;;;;5093027;28;20231;-63
2021/11/13 03:47:49;;;;;;;39.25;27.95;;;7.70;99.90;;;;;;5092851;28;20281;-63
2021/11/13 03:50:16;;;;;;;42.85;28.25;;;7.80;99.90;;;;;;5092916;28;20280;-63
2021/11/13 03:52:43;;;;;;;48.72;32.85;;;7.70;99.90;;;;;;5092447;28;20227;-63
2021/11/13 03:55:10;;;;;;;40.35;27.85;;;7.70;99.90;;;;;;5092828;28;20620;-64
2021/11/13 03:57:37;;;;;;;45.00;27.60;;;7.80;99.90;;;;;;5093203;28;20249;-63
2021/11/13 04:00:05;;;;;;;41.25;27.42;;;7.70;99.90;;;;;;5092488;28;20773;-63
2021/11/13 04:02:32;;;;;;;40.88;27.52;;;7.80;99.90;;;;;;5087734;28;20231;-63
2021/11/13 04:05:00;;;;;;;39.83;27.45;;;7.90;99.90;;;;;;5093097;28;20226;-64
2021/11/13 04:07:28;;;;;;;42.13;26.92;;;7.80;99.90;;;;;;5092017;28;20223;-63
2021/11/13 04:09:55;;;;;;;41.78;26.52;;;7.70;99.90;;;;;;5092725;28;20215;-63
2021/11/13 04:12:22;;;;;;;38.38;27.88;;;7.70;99.90;;;;;;5092656;28;20288;-64
2021/11/13 04:14:49;;;;;;;39.30;27.73;;;7.70;99.90;;;;;;5092774;28;20580;-63
2021/11/13 04:17:16;;;;;;;40.20;27.40;;;7.70;99.90;;;;;;5088936;28;20219;-63
2021/11/13 04:19:43;;;;;;;43.45;30.48;;;7.80;99.90;;;;;;5088349;28;20227;-63
2021/11/13 04:22:11;;;;;;;45.13;26.67;;;7.80;99.90;;;;;;5092418;28;20235;-64
2021/11/13 04:24:38;;;;;;;40.92;26.95;;;7.80;99.90;;;;;;5092694;28;20230;-63
2021/11/13 04:27:05;;;;;;;36.72;26.45;;;7.80;99.90;;;;;;5092215;28;20565;-63
2021/11/13 04:29:32;;;;;;;36.25;26.13;;;7.70;99.90;;;;;;5092353;28;20227;-63
2021/11/13 04:31:59;;;;;;;40.83;28.13;;;7.70;99.90;;;;;;5092208;28;20223;-63
2021/11/13 04:34:28;;;;;;;38.70;30.65;;;7.80;99.90;;;;;;5090326;28;20223;-64
2021/11/13 04:36:59;;;;;;;38.67;30.00;;;7.80;99.90;;;;;;5089869;28;20223;-63
2021/11/13 04:39:28;;;;;;;36.30;26.20;;;7.80;99.90;;;;;;5089185;28;20243;-64
2021/11/13 04:41:55;;;;;;;35.47;23.08;;;7.80;99.90;;;;;;5092088;28;20285;-63
2021/11/13 04:47:05;;;;;;;38.80;28.25;;;7.90;99.90;;;;;;5089933;28;20226;-64
2021/11/13 04:49:32;;;;;;;34.80;26.35;;;7.90;99.90;;;;;;5089875;28;20224;-63
2021/11/13 04:52:00;;;;;;;38.13;25.95;;;8.00;99.90;;;;;;5091903;28;20322;-63
2021/11/13 04:54:28;;;;;;;38.92;27.15;;;8.00;99.90;;;;;;5090715;28;20597;-63
2021/11/13 04:56:55;;;;;;;36.38;24.88;;;8.10;99.90;;;;;;5091678;28;20280;-63
2021/11/13 04:59:22;;;;;;;34.63;24.55;;;8.10;99.90;;;;;;5091594;28;20223;-63
2021/11/13 05:01:50;;;;;;;36.75;26.20;;;8.10;99.90;;;;;;5088543;28;20280;-63
2021/11/13 05:04:17;;;;;;;38.15;25.60;;;8.10;99.90;;;;;;5092608;28;20223;-63
2021/11/13 05:06:44;;;;;;;35.00;26.83;;;8.20;99.90;;;;;;5096115;28;20223;-63
2021/11/13 05:09:11;;;;;;;34.67;24.48;;;8.20;99.90;;;;;;5084529;28;20718;-63
2021/11/13 05:11:40;;;;;;;39.05;25.92;;;8.20;99.90;;;;;;5091893;28;20276;-64
2021/11/13 05:14:07;;;;;;;36.45;25.00;;;8.30;99.90;;;;;;5096026;28;20542;-63
2021/11/13 05:16:34;;;;;;;33.85;23.33;;;8.30;99.90;;;;;;5095342;28;20229;-63
2021/11/13 05:19:01;;;;;;;39.50;27.20;;;8.30;99.90;;;;;;5095827;28;20218;-64
2021/11/13 05:21:28;;;;;;;33.38;23.42;;;8.30;99.90;;;;;;5095045;28;20669;-63
2021/11/13 05:23:55;;;;;;;37.75;25.95;;;8.30;99.90;;;;;;5091249;28;20238;-64
2021/11/13 05:26:22;;;;;;;37.15;23.63;;;8.30;99.90;;;;;;5094871;28;20219;-64
2021/11/13 05:28:51;;;;;;;32.85;25.00;;;8.30;99.90;;;;;;5094946;28;20223;-63
2021/11/13 05:31:18;;;;;;;34.13;24.25;;;8.20;99.90;;;;;;5092867;28;20709;-63
2021/11/13 05:33:45;;;;;;;35.35;24.70;;;8.20;99.90;;;;;;5095098;28;20211;-62
2021/11/13 05:36:12;;;;;;;37.42;26.33;;;8.20;99.90;;;;;;5093347;28;20234;-63
2021/11/13 05:38:39;;;;;;;37.63;22.77;;;8.20;99.90;;;;;;5093890;28;20309;-62
2021/11/13 05:41:06;;;;;;;33.45;23.17;;;8.20;99.90;;;;;;5094859;28;20729;-63
2021/11/13 05:43:33;;;;;;;34.67;25.42;;;8.20;99.90;;;;;;5094673;28;20273;-63
2021/11/13 05:46:01;;;;;;;38.08;25.45;;;8.20;99.90;;;;;;5093935;28;20223;-63
2021/11/13 05:48:28;;;;;;;32.00;23.33;;;8.30;99.90;;;;;;5093045;28;20223;-63
2021/11/13 05:50:55;;;;;;;38.00;26.65;;;8.20;99.90;;;;;;5093451;28;20224;-62
2021/11/13 05:53:22;;;;;;;36.03;24.95;;;8.20;99.90;;;;;;5090458;27;20219;-62
2021/11/13 05:55:49;;;;;;;34.08;25.75;;;8.20;99.90;;;;;;5090833;28;20216;-62
2021/11/13 05:58:18;;;;;;;34.65;23.77;;;8.10;99.90;;;;;;5094968;28;20611;-63
2021/11/13 06:00:45;;;;;;;30.58;22.20;;;8.10;99.90;;;;;;5087561;28;20563;-63
2021/11/13 06:03:14;;;;;;;35.90;22.23;;;8.10;99.90;;;;;;5084748;28;20284;-63
2021/11/13 06:05:42;;;;;;;34.28;22.75;;;8.10;99.90;;;;;;5090244;28;20234;-63
2021/11/13 06:08:11;;;;;;;33.17;23.00;;;8.10;99.90;;;;;;5094442;28;20284;-63
2021/11/13 06:10:38;;;;;;;30.63;23.20;;;8.20;99.90;;;;;;5094482;28;20247;-63
2021/11/13 06:13:05;;;;;;;33.25;23.95;;;8.10;99.90;;;;;;5090917;28;20234;-63
2021/11/13 06:15:34;;;;;;;33.08;23.35;;;8.20;99.90;;;;;;5094066;28;20680;-63
2021/11/13 06:18:02;;;;;;;36.08;25.50;;;8.20;99.90;;;;;;5094493;28;20326;-63
2021/11/13 06:20:30;;;;;;;36.58;23.67;;;8.20;99.90;;;;;;5094311;28;20272;-63
2021/11/13 06:22:57;;;;;;;32.30;22.13;;;8.20;99.90;;;;;;5094914;28;20219;-63
2021/11/13 06:25:24;;;;;;;29.13;20.52;;;8.30;99.90;;;;;;5093721;28;20227;-63
2021/11/13 06:27:51;;;;;;;32.40;22.33;;;8.30;99.90;;;;;;5093876;28;20220;-63
2021/11/13 06:30:19;;;;;;;32.13;23.63;;;8.30;99.90;;;;;;5093294;28;20231;-63
2021/11/13 06:32:50;;;;;;;30.70;22.52;;;8.30;99.90;;;;;;5093583;28;20697;-63
2021/11/13 06:35:18;;;;;;;38.28;23.75;;;8.30;99.90;;;;;;5093284;28;20227;-63
2021/11/13 06:37:47;;;;;;;36.30;24.60;;;8.40;99.90;;;;;;5091917;28;20671;-63
2021/11/13 06:40:15;;;;;;;37.63;25.42;;;8.40;99.90;;;;;;5092493;28;20674;-63
2021/11/13 06:42:42;;;;;;;31.13;23.90;;;8.40;99.90;;;;;;5091361;28;20215;-63
2021/11/13 06:45:12;;;;;;;30.85;23.75;;;8.40;99.90;;;;;;5092604;28;20219;-63
2021/11/13 06:47:39;;;;;;;31.90;22.23;;;8.50;99.90;;;;;;5091193;28;20225;-63
2021/11/13 06:50:08;;;;;;;27.73;20.48;;;8.50;99.90;;;;;;5093590;28;20292;-63
2021/11/13 06:52:35;;;;;;;30.63;21.20;;;8.50;99.90;;;;;;5094161;28;20321;-63
2021/11/13 06:55:04;;;;;;;32.78;20.95;;;8.60;99.90;;;;;;5093100;28;20219;-63
2021/11/13 06:57:31;;;;;;;33.80;23.58;;;8.60;99.90;;;;;;5093811;28;20803;-63
2021/11/13 06:59:58;;;;;;;31.45;22.88;;;8.60;99.90;;;;;;5093960;28;20383;-63
2021/11/13 07:02:25;;;;;;;38.75;24.98;;;8.60;99.90;;;;;;5093947;28;20231;-63
2021/11/13 07:04:53;;;;;;;31.23;21.50;;;8.60;99.90;;;;;;5094176;28;20243;-64
2021/11/13 07:07:20;;;;;;;32.97;22.85;;;8.50;99.90;;;;;;5075515;28;20224;-63
2021/11/13 07:09:47;;;;;;;30.70;21.20;;;8.50;99.90;;;;;;5073532;28;20228;-64
2021/11/13 07:12:15;;;;;;;29.02;21.00;;;8.60;99.90;;;;;;5073883;28;20638;-63
2021/11/13 07:14:42;;;;;;;28.88;19.88;;;8.60;99.90;;;;;;5073728;28;20239;-63
2021/11/13 07:17:09;;;;;;;28.20;20.33;;;8.60;99.90;;;;;;5090314;28;20219;-63
2021/11/13 07:19:36;;;;;;;31.13;19.33;;;8.60;99.90;;;;;;5093597;28;20223;-63
2021/11/13 07:22:03;;;;;;;38.20;27.95;;;8.60;99.90;;;;;;5093884;28;20239;-63
2021/11/13 07:24:30;;;;;;;34.13;23.60;;;8.70;99.90;;;;;;5093040;28;20223;-63
2021/11/13 07:26:57;;;;;;;28.05;19.48;;;8.70;99.90;;;;;;5093993;28;20286;-64
2021/11/13 07:29:28;;;;;;;24.85;19.05;;;8.70;99.90;;;;;;5084116;28;20581;-64
2021/11/13 07:31:55;;;;;;;27.83;20.65;;;8.80;99.90;;;;;;5073265;28;20224;-63
2021/11/13 07:34:23;;;;;;;27.92;20.23;;;8.80;99.90;;;;;;5073621;28;20224;-63
2021/11/13 07:36:50;;;;;;;31.58;21.63;;;8.80;99.90;;;;;;5073330;28;20219;-63
2021/11/13 07:39:17;;;;;;;26.83;20.13;;;8.80;99.90;;;;;;5090424;28;20566;-63
2021/11/13 07:41:44;;;;;;;29.10;21.25;;;8.80;99.90;;;;;;5093196;28;20231;-63
2021/11/13 07:44:11;;;;;;;24.05;19.38;;;8.80;99.90;;;;;;5093218;28;20227;-63
2021/11/13 07:46:43;;;;;;;26.63;18.80;;;8.80;99.90;;;;;;5093129;28;20591;-63
2021/11/13 07:49:11;;;;;;;27.10;19.45;;;8.80;99.90;;;;;;5093382;28;20224;-63
2021/11/13 07:51:38;;;;;;;29.98;21.13;;;8.80;99.90;;;;;;5092852;28;20251;-63
2021/11/13 07:54:05;;;;;;;28.02;19.60;;;8.80;99.90;;;;;;5093144;28;20223;-63
2021/11/13 07:56:33;;;;;;;26.30;20.30;;;8.90;99.90;;;;;;5084081;28;20227;-63
2021/11/13 07:58:59;;;;;;;26.48;19.25;;;8.80;99.90;;;;;;5072924;28;20249;-63
2021/11/13 08:01:26;;;;;;;27.38;19.13;;;8.80;99.90;;;;;;5072825;28;20294;-63
2021/11/13 08:03:55;;;;;;;28.58;20.90;;;8.80;99.90;;;;;;5072569;28;20231;-63
2021/11/13 08:06:22;;;;;;;28.35;19.85;;;8.80;99.90;;;;;;5083472;28;20565;-64
2021/11/13 08:08:49;;;;;;;27.17;19.25;;;8.90;99.90;;;;;;5092596;28;21196;-64
2021/11/13 08:11:17;;;;;;;26.08;19.13;;;8.90;99.90;;;;;;5093021;28;20238;-64
2021/11/13 08:13:44;;;;;;;29.60;19.33;;;8.90;99.90;;;;;;5078706;28;20220;-64
2021/11/13 08:16:11;;;;;;;24.95;18.23;;;8.90;99.90;;;;;;5072786;28;20228;-64
2021/11/13 08:18:38;;;;;;;25.63;18.08;;;9.00;99.90;;;;;;5072676;28;20593;-64
2021/11/13 08:21:06;;;;;;;26.40;19.55;;;8.90;99.90;;;;;;5086590;28;20461;-64
2021/11/13 08:23:34;;;;;;;27.40;19.13;;;9.00;99.90;;;;;;5092500;28;20565;-64
2021/11/13 08:26:01;;;;;;;26.17;20.45;;;8.90;99.90;;;;;;5092882;28;20227;-63
2021/11/13 08:28:28;;;;;;;24.50;18.50;;;8.90;99.90;;;;;;5092834;28;20223;-63
2021/11/13 08:30:56;;;;;;;27.40;21.05;;;8.90;99.90;;;;;;5092195;28;20234;-63
2021/11/13 08:33:23;;;;;;;29.77;20.60;;;8.90;99.90;;;;;;5092908;28;20230;-63
2021/11/13 08:35:51;;;;;;;23.73;18.45;;;8.90;99.90;;;;;;5092195;28;20249;-63
2021/11/13 08:38:21;;;;;;;29.77;21.25;;;8.90;99.90;;;;;;5092666;28;20546;-62
2021/11/13 08:40:48;;;;;;;27.38;18.30;;;9.00;99.90;;;;;;5091983;28;20243;-63
2021/11/13 08:43:17;;;;;;;25.95;18.33;;;9.00;99.90;;;;;;5092395;28;20668;-62
2021/11/13 08:45:44;;;;;;;27.25;18.50;;;9.00;99.90;;;;;;5092263;28;20227;-62
2021/11/13 08:48:12;;;;;;;26.92;20.42;;;9.00;99.90;;;;;;5092592;28;20242;-63
2021/11/13 08:50:39;;;;;;;28.30;19.33;;;9.00;99.90;;;;;;5092053;28;20234;-64
2021/11/13 08:53:08;;;;;;;27.73;20.80;;;9.10;99.90;;;;;;5092698;28;20231;-63
2021/11/13 08:55:38;;;;;;;26.67;20.20;;;9.10;99.90;;;;;;5090952;28;20250;-63
2021/11/13 08:58:07;;;;;;;30.83;22.13;;;9.10;99.90;;;;;;5092629;28;20642;-64
2021/11/13 09:00:38;;;;;;;32.42;23.65;;;9.20;99.90;;;;;;5092237;28;20589;-64
2021/11/13 09:03:08;;;;;;;31.45;20.60;;;9.20;99.90;;;;;;5092566;28;20700;-63
2021/11/13 09:05:35;;;;;;;26.60;17.67;;;9.20;99.90;;;;;;5092161;28;20288;-63
2021/11/13 09:08:05;;;;;;;23.75;19.85;;;9.20;99.90;;;;;;5092313;28;20223;-63
2021/11/13 09:10:32;;;;;;;25.13;19.60;;;9.20;99.90;;;;;;5092593;28;20231;-63
2021/11/13 09:13:01;;;;;;;24.00;17.38;;;9.30;99.90;;;;;;5092202;28;20242;-63
2021/11/13 09:15:32;;;;;;;27.15;18.35;;;9.20;99.90;;;;;;5092385;28;20234;-63
2021/11/13 09:17:59;;;;;;;25.02;18.88;;;9.20;99.90;;;;;;5092258;28;20590;-64
2021/11/13 09:20:27;;;;;;;24.08;18.30;;;9.20;99.90;;;;;;5092318;28;20227;-64
2021/11/13 09:22:55;;;;;;;21.92;17.30;;;9.20;99.90;;;;;;5091858;28;20258;-62
2021/11/13 09:25:22;;;;;;;25.98;18.23;;;9.20;99.90;;;;;;5092591;28;20224;-63
2021/11/13 09:27:49;;;;;;;28.20;19.77;;;9.30;99.90;;;;;;5092066;28;20577;-63
2021/11/13 09:30:20;;;;;;;23.38;18.05;;;9.30;99.90;;;;;;5092056;28;20239;-63
2021/11/13 09:32:47;;;;;;;24.63;19.10;;;9.30;99.90;;;;;;5091971;28;20232;-63
2021/11/13 09:35:16;;;;;;;27.75;17.30;;;9.30;99.90;;;;;;5092157;28;20234;-63
2021/11/13 09:37:46;;;;;;;24.45;17.52;;;9.30;99.90;;;;;;5091876;28;20216;-63
2021/11/13 09:40:16;;;;;;;24.13;17.88;;;9.30;99.90;;;;;;5092310;28;20546;-63
2021/11/13 09:42:44;;;;;;;24.10;16.88;;;9.40;99.90;;;;;;5091585;28;20223;-63
2021/11/13 09:45:12;;;;;;;27.65;19.75;;;9.40;99.90;;;;;;5092173;28;20315;-63
2021/11/13 09:47:41;;;;;;;24.77;18.40;;;9.40;99.90;;;;;;5091887;28;20247;-62
2021/11/13 09:50:09;;;;;;;22.48;17.40;;;9.60;99.90;;;;;;5091977;28;20238;-63
2021/11/13 09:52:36;;;;;;;23.35;18.50;;;9.60;99.90;;;;;;5094949;28;20247;-63
2021/11/13 09:55:05;;;;;;;26.65;17.45;;;9.60;99.90;;;;;;5095708;28;20234;-63
2021/11/13 09:57:32;;;;;;;22.88;17.38;;;9.60;99.90;;;;;;5095647;28;20223;-63
2021/11/13 09:59:59;;;;;;;20.60;16.42;;;9.60;99.90;;;;;;5095028;28;20239;-62
2021/11/13 10:02:26;;;;;;;27.60;21.35;;;9.70;99.90;;;;;;5095697;28;20231;-62
2021/11/13 10:04:54;;;;;;;27.33;19.25;;;9.70;99.90;;;;;;5095166;28;20669;-63
2021/11/13 10:07:21;;;;;;;20.60;16.95;;;9.70;99.90;;;;;;5088998;28;20220;-62
2021/11/13 10:09:49;;;;;;;25.20;17.23;;;9.80;99.90;;;;;;5074837;28;20678;-63
2021/11/13 10:12:16;;;;;;;20.42;16.05;;;9.70;99.90;;;;;;5075160;28;20251;-63
2021/11/13 10:14:45;;;;;;;21.25;16.45;;;9.80;99.90;;;;;;5074696;28;20223;-63
2021/11/13 10:17:20;;;;;;;22.00;16.27;;;9.80;99.90;;;;;;5075152;28;20224;-62
2021/11/13 10:19:48;;;;;;;27.45;19.75;;;9.90;99.90;;;;;;5077804;28;20545;-62
2021/11/13 10:22:16;;;;;;;26.88;20.15;;;9.90;99.90;;;;;;5095231;28;20223;-63
2021/11/13 10:24:48;;;;;;;32.53;24.73;;;9.90;99.90;;;;;;5094892;28;20223;-63
2021/11/13 10:27:16;;;;;;;23.17;18.90;;;9.90;99.90;;;;;;5095447;28;20560;-62
2021/11/13 10:29:47;;;;;;;21.20;16.67;;;10.00;99.90;;;;;;5094640;28;20231;-62
2021/11/13 10:32:18;;;;;;;19.77;15.88;;;10.00;99.90;;;;;;5095053;28;20234;-63
2021/11/13 10:34:47;;;;;;;19.50;15.40;;;10.00;99.90;;;;;;5094832;28;20227;-62
2021/11/13 10:37:20;;;;;;;18.55;14.48;;;10.10;99.90;;;;;;5095217;28;20239;-63
2021/11/13 10:39:48;;;;;;;18.38;14.38;;;10.10;99.90;;;;;;5094425;28;20231;-62
2021/11/13 10:42:18;;;;;;;20.17;15.18;;;10.10;99.90;;;;;;5095027;28;20246;-63
2021/11/13 10:44:48;;;;;;;23.17;17.23;;;10.10;99.90;;;;;;5094518;28;20258;-63
2021/11/13 10:47:17;;;;;;;20.30;17.30;;;10.20;99.90;;;;;;5094902;28;20247;-63
2021/11/13 10:49:45;;;;;;;22.35;17.77;;;10.30;99.90;;;;;;5094444;28;20581;-64
2021/11/13 10:52:13;;;;;;;20.17;16.42;;;10.30;99.90;;;;;;5094530;28;20227;-64
2021/11/13 10:54:45;;;;;;;20.77;15.90;;;10.30;99.90;;;;;;5094532;28;20234;-63
2021/11/13 10:57:12;;;;;;;19.52;16.25;;;10.30;99.90;;;;;;5094801;28;20543;-62
2021/11/13 10:59:41;;;;;;;20.45;16.40;;;10.30;99.90;;;;;;5094575;28;20235;-62
2021/11/13 11:02:10;;;;;;;23.38;16.17;;;10.30;99.90;;;;;;5093603;28;20235;-62
2021/11/13 11:04:39;;;;;;;19.98;15.63;;;10.40;99.90;;;;;;5094543;28;20685;-62
2021/11/13 11:07:11;;;;;;;19.48;17.15;;;10.40;99.90;;;;;;5093921;28;20220;-62
2021/11/13 11:09:40;;;;;;;22.33;17.42;;;10.50;99.90;;;;;;5094157;28;20234;-62
2021/11/13 11:12:11;;;;;;;23.30;17.55;;;10.50;99.90;;;;;;5093783;28;20219;-62
2021/11/13 11:14:40;;;;;;;23.30;17.65;;;10.50;99.90;;;;;;5094509;28;20560;-63
2021/11/13 11:17:09;;;;;;;23.13;16.83;;;10.50;99.90;;;;;;5093685;28;20227;-64
2021/11/13 11:19:38;;;;;;;23.17;17.95;;;10.60;99.90;;;;;;5093975;28;20223;-63
2021/11/13 11:22:07;;;;;;;24.33;16.48;;;10.60;99.90;;;;;;5093722;28;20223;-63
2021/11/13 11:24:38;;;;;;;18.25;15.10;;;10.60;99.90;;;;;;5094076;28;20288;-64
2021/11/13 11:27:13;;;;;;;19.02;15.68;;;10.60;99.90;;;;;;5093693;28;20219;-63
2021/11/13 11:29:56;;;;;;;22.42;16.73;;;10.70;99.90;;;;;;5093866;28;20222;-63
2021/11/13 11:32:27;;;;;;;22.40;16.35;;;10.70;99.90;;;;;;5093631;28;20211;-63
2021/11/13 11:34:55;;;;;;;25.48;16.92;;;10.80;99.90;;;;;;5093831;28;20277;-63
2021/11/13 11:37:25;;;;;;;22.90;18.08;;;10.80;99.90;;;;;;5093433;28;20227;-63
2021/11/13 11:39:54;;;;;;;29.67;21.45;;;10.80;99.90;;;;;;5093670;28;20692;-63
2021/11/13 11:42:23;;;;;;;28.70;21.60;;;10.90;99.90;;;;;;5093113;28;20223;-62
2021/11/13 11:44:51;;;;;;;20.10;17.23;;;11.00;99.90;;;;;;5093502;28;20220;-63
2021/11/13 11:47:20;;;;;;;21.92;17.38;;;11.10;99.90;;;;;;5093007;28;20276;-64
2021/11/13 11:49:49;;;;;;;20.08;16.67;;;11.10;99.90;;;;;;5093375;28;20584;-63
2021/11/13 11:52:18;;;;;;;25.17;17.67;;;11.10;99.90;;;;;;5093306;28;20223;-63
2021/11/13 11:54:46;;;;;;;20.13;15.93;;;11.20;99.90;;;;;;5093174;28;20219;-64
2021/11/13 11:57:14;;;;;;;19.52;15.80;;;11.30;99.90;;;;;;5092438;28;20604;-63
2021/11/13 11:59:44;;;;;;;19.98;15.60;;;11.20;99.90;;;;;;5093355;28;20692;-63
2021/11/13 12:02:14;;;;;;;18.88;16.08;;;11.10;99.90;;;;;;5092887;28;20231;-63
2021/11/13 12:04:43;;;;;;;17.75;14.15;;;11.20;99.90;;;;;;5093548;28;20227;-63
2021/11/13 12:07:13;;;;;;;19.70;16.60;;;11.20;99.90;;;;;;5092516;28;20222;-63
2021/11/13 12:10:01;;;;;;;15.68;14.05;;;11.20;99.90;;;;;;5093048;28;20223;-63
2021/11/13 12:12:29;;;;;;;19.27;14.80;;;11.30;99.90;;;;;;5093159;28;20709;-63
2021/11/13 12:15:13;;;;;;;20.30;16.13;;;11.30;99.90;;;;;;5092566;28;20242;-64
2021/11/13 12:17:40;;;;;;;18.83;14.95;;;11.30;99.90;;;;;;5093781;28;20219;-63
2021/11/13 12:20:30;;;;;;;17.95;13.88;;;11.30;99.90;;;;;;5092519;28;20219;-63
2021/11/13 12:23:08;;;;;;;23.85;18.38;;;11.30;99.90;;;;;;5092615;28;20266;-65
2021/11/13 12:25:39;;;;;;;20.08;15.88;;;11.30;99.90;;;;;;5092999;28;20223;-63
2021/11/13 12:28:18;;;;;;;18.38;14.50;;;11.30;99.90;;;;;;5092725;28;20237;-62
2021/11/13 12:30:56;;;;;;;18.00;15.68;;;11.40;99.90;;;;;;5092489;28;20254;-63
2021/11/13 12:33:47;;;;;;;20.83;16.08;;;11.40;99.90;;;;;;5092917;28;20219;-64
2021/11/13 12:36:17;;;;;;;20.85;17.23;;;11.40;99.90;;;;;;5092744;28;20219;-63
2021/11/13 12:38:48;;;;;;;21.75;15.57;;;11.40;99.90;;;;;;5092784;28;20216;-63
2021/11/13 12:41:17;;;;;;;19.15;14.30;;;11.50;99.90;;;;;;5092659;28;20223;-64
2021/11/13 12:44:08;;;;;;;22.30;17.95;;;11.50;99.90;;;;;;5092741;28;20581;-64